Time;durP1;ratioP1;P1;durP2;ratioP2;P2;SDS_P1;SDS_P2;PMS_P1;PMS_P2;Temp;Humidity;BMP_temperature;BMP_pressure;BME280_temperature;BME280_humidity;BME280_pressure;Samples;Min_cycle;Max_cycle;Signal;HPM_P1;HPM_P2
2021/05/12 04:01:22;;;;;;;17.73;11.93;;;11.90;99.90;;;;;;5517807;23;20240;-74
2021/05/12 04:03:49;;;;;;;18.20;13.20;;;11.90;99.90;;;;;;4936931;29;20206;-74
2021/05/12 04:06:15;;;;;;;16.80;12.52;;;11.90;99.90;;;;;;4954094;28;20220;-74
2021/05/12 04:08:41;;;;;;;19.98;13.02;;;11.90;99.90;;;;;;4947591;29;20202;-74
2021/05/12 04:11:07;;;;;;;16.30;12.48;;;11.80;99.90;;;;;;4935423;29;20226;-74
2021/05/12 04:13:33;;;;;;;17.20;11.52;;;11.80;99.90;;;;;;4930219;29;20213;-74
2021/05/12 04:15:59;;;;;;;17.15;12.30;;;11.80;99.90;;;;;;4916210;29;20222;-74
2021/05/12 04:18:27;;;;;;;16.92;13.18;;;11.80;99.90;;;;;;4917643;29;20285;-74
2021/05/12 04:20:53;;;;;;;15.18;11.88;;;11.80;99.90;;;;;;4935613;29;20611;-74
2021/05/12 04:23:20;;;;;;;18.63;14.05;;;11.80;99.90;;;;;;4932165;29;20210;-75
2021/05/12 04:25:46;;;;;;;16.23;12.65;;;11.80;99.90;;;;;;4916418;29;20218;-74
2021/05/12 04:28:12;;;;;;;17.58;12.45;;;11.80;99.90;;;;;;4915869;29;20667;-76
2021/05/12 04:30:38;;;;;;;15.40;12.77;;;11.80;99.90;;;;;;4934597;29;20602;-74
2021/05/12 04:33:05;;;;;;;18.95;13.00;;;11.70;99.90;;;;;;4935021;29;20624;-73
2021/05/12 04:35:32;;;;;;;17.33;13.25;;;11.70;99.90;;;;;;4917091;29;20211;-74
2021/05/12 04:37:59;;;;;;;15.30;12.93;;;11.70;99.90;;;;;;4915194;29;20226;-74
2021/05/12 04:40:25;;;;;;;17.25;13.45;;;11.70;99.90;;;;;;4932254;29;20305;-73
2021/05/12 04:42:51;;;;;;;15.82;12.10;;;11.60;99.90;;;;;;4938161;29;20206;-74
2021/05/12 04:45:19;;;;;;;17.75;13.40;;;11.70;99.90;;;;;;4923400;29;20213;-74
2021/05/12 04:47:55;;;;;;;22.38;13.52;;;11.70;99.90;;;;;;4919603;29;20221;-74
2021/05/12 04:50:23;;;;;;;19.05;13.63;;;11.70;99.90;;;;;;4932913;29;20725;-75
2021/05/12 04:52:51;;;;;;;14.60;12.85;;;11.70;99.90;;;;;;4928127;29;20585;-75
2021/05/12 04:55:17;;;;;;;15.65;12.60;;;11.70;99.90;;;;;;4919766;29;20211;-75
2021/05/12 04:57:43;;;;;;;15.90;12.60;;;11.70;99.90;;;;;;4928553;29;20221;-75
2021/05/12 05:00:12;;;;;;;15.43;13.13;;;11.80;99.90;;;;;;4937697;29;20198;-76
2021/05/12 05:02:39;;;;;;;15.82;11.70;;;11.80;99.90;;;;;;4925790;29;20226;-77
2021/05/12 05:05:07;;;;;;;20.83;12.90;;;11.80;99.90;;;;;;4918503;29;20214;-76
2021/05/12 05:07:33;;;;;;;15.77;12.50;;;11.80;99.90;;;;;;4925418;29;20293;-78
2021/05/12 05:10:02;;;;;;;20.50;13.27;;;11.80;99.90;;;;;;4923567;29;20742;-78
2021/05/12 05:12:29;;;;;;;15.40;11.65;;;11.90;99.90;;;;;;4937471;29;20268;-78
2021/05/12 05:14:55;;;;;;;15.93;11.70;;;11.90;99.90;;;;;;4921471;29;20217;-79
2021/05/12 05:17:22;;;;;;;20.08;14.65;;;11.90;99.90;;;;;;4937737;29;20265;-78
2021/05/12 05:19:48;;;;;;;14.77;12.52;;;11.90;99.90;;;;;;4928541;29;20207;-78
2021/05/12 05:22:16;;;;;;;17.00;12.77;;;11.90;99.90;;;;;;4919164;29;20560;-76
2021/05/12 05:24:42;;;;;;;15.95;12.88;;;11.90;99.90;;;;;;4933797;29;20206;-75
2021/05/12 05:27:09;;;;;;;14.93;12.60;;;12.00;99.90;;;;;;4937831;29;20216;-76
2021/05/12 05:29:37;;;;;;;14.38;12.15;;;12.00;99.90;;;;;;4925858;29;20214;-75
2021/05/12 05:32:04;;;;;;;14.60;12.15;;;12.00;99.90;;;;;;4918580;29;20616;-76
2021/05/12 05:34:30;;;;;;;17.35;13.18;;;12.00;99.90;;;;;;4921638;29;20273;-75
2021/05/12 05:36:56;;;;;;;15.23;12.48;;;12.00;99.90;;;;;;4918595;29;20217;-75
2021/05/12 05:39:22;;;;;;;14.55;12.00;;;12.10;99.90;;;;;;4927688;29;20221;-75
2021/05/12 05:41:53;;;;;;;17.42;12.70;;;12.10;99.90;;;;;;4938202;29;20300;-75
2021/05/12 05:44:21;;;;;;;17.02;12.55;;;12.10;99.90;;;;;;4933919;29;20731;-76
2021/05/12 05:46:47;;;;;;;15.23;11.82;;;12.10;99.90;;;;;;4938329;29;20213;-75
2021/05/12 05:49:14;;;;;;;12.45;11.18;;;12.10;99.90;;;;;;4926766;29;20203;-74
2021/05/12 05:51:40;;;;;;;16.83;11.35;;;12.10;99.90;;;;;;4927226;29;20238;-74
2021/05/12 05:54:06;;;;;;;13.77;10.80;;;12.10;99.90;;;;;;4944492;29;20311;-74
2021/05/12 05:56:32;;;;;;;14.70;11.93;;;12.10;99.90;;;;;;4945646;29;20226;-75
2021/05/12 05:58:58;;;;;;;18.38;13.57;;;12.10;99.90;;;;;;4930355;29;20225;-75
2021/05/12 06:01:26;;;;;;;13.45;10.75;;;12.10;99.90;;;;;;4925874;29;20301;-74
2021/05/12 06:03:52;;;;;;;15.43;12.18;;;12.10;99.90;;;;;;4918062;29;20217;-75
2021/05/12 06:06:18;;;;;;;11.73;10.27;;;12.10;99.90;;;;;;4928057;29;20257;-74
2021/05/12 06:08:44;;;;;;;14.93;11.40;;;12.10;99.90;;;;;;4937159;29;20206;-75
2021/05/12 06:11:11;;;;;;;15.32;11.73;;;12.20;99.90;;;;;;4926997;29;20223;-74
2021/05/12 06:13:37;;;;;;;19.58;10.75;;;12.20;99.90;;;;;;4935552;29;20206;-75
2021/05/12 06:16:03;;;;;;;14.48;11.20;;;12.20;99.90;;;;;;4930500;29;20207;-75
2021/05/12 06:18:31;;;;;;;12.00;10.70;;;12.10;99.90;;;;;;4937194;29;20226;-75
2021/05/12 06:20:57;;;;;;;13.50;10.95;;;12.10;99.90;;;;;;4931529;29;20229;-75
2021/05/12 06:23:23;;;;;;;14.38;10.13;;;12.10;99.90;;;;;;4917574;29;20224;-69
2021/05/12 06:25:51;;;;;;;13.00;10.70;;;12.10;99.90;;;;;;4922771;29;20213;-75
2021/05/12 06:28:18;;;;;;;13.45;11.50;;;12.10;99.90;;;;;;4918309;29;20310;-74
2021/05/12 06:30:49;;;;;;;13.77;11.40;;;12.10;99.90;;;;;;4922315;29;20222;-74
2021/05/12 06:33:17;;;;;;;13.68;10.15;;;12.10;99.90;;;;;;4937808;29;20274;-74
2021/05/12 06:35:44;;;;;;;13.05;10.18;;;12.20;99.90;;;;;;4937479;29;20206;-75
2021/05/12 06:38:11;;;;;;;15.93;11.25;;;12.30;99.90;;;;;;4919088;29;20246;-75
2021/05/12 06:40:37;;;;;;;16.73;12.18;;;12.30;99.90;;;;;;4917424;29;20234;-75
2021/05/12 06:43:04;;;;;;;18.50;12.63;;;12.30;99.90;;;;;;4917505;29;20194;-75
2021/05/12 06:45:30;;;;;;;11.63;10.30;;;12.40;99.90;;;;;;4917166;29;20215;-75
2021/05/12 06:47:57;;;;;;;12.07;10.30;;;12.40;99.90;;;;;;4921228;29;20262;-74
2021/05/12 06:50:24;;;;;;;12.05;10.57;;;12.40;99.90;;;;;;4922911;29;20233;-72
2021/05/12 06:52:55;;;;;;;16.27;11.18;;;12.50;99.90;;;;;;4935369;29;20214;-72
2021/05/12 06:55:22;;;;;;;12.13;10.88;;;12.60;99.90;;;;;;4935596;29;20236;-74
2021/05/12 06:57:49;;;;;;;15.48;11.80;;;12.70;99.90;;;;;;4925619;29;20294;-73
2021/05/12 07:00:16;;;;;;;13.35;10.88;;;12.70;99.90;;;;;;4917812;29;20206;-73
2021/05/12 07:02:43;;;;;;;14.63;11.55;;;12.80;99.90;;;;;;4916316;29;20210;-73
2021/05/12 07:05:14;;;;;;;13.27;10.75;;;12.80;99.90;;;;;;4923713;29;20281;-73
2021/05/12 07:07:40;;;;;;;12.75;11.40;;;12.90;99.90;;;;;;4928683;29;20207;-73
2021/05/12 07:10:09;;;;;;;15.15;13.65;;;12.90;99.90;;;;;;4917419;29;20218;-75
2021/05/12 07:12:35;;;;;;;15.60;13.98;;;13.00;99.90;;;;;;4923996;29;20222;-73
2021/05/12 07:15:02;;;;;;;16.92;13.98;;;13.10;99.90;;;;;;4922360;29;20198;-75
2021/05/12 07:17:29;;;;;;;14.02;12.63;;;13.10;99.90;;;;;;4937344;29;20678;-74
2021/05/12 07:19:55;;;;;;;15.40;12.95;;;13.10;99.90;;;;;;4923962;29;20203;-75
2021/05/12 07:22:21;;;;;;;14.15;11.95;;;13.10;99.90;;;;;;4935908;29;20591;-75
2021/05/12 07:24:47;;;;;;;13.15;11.38;;;13.10;99.90;;;;;;4923212;29;20214;-75
2021/05/12 07:27:14;;;;;;;17.52;13.15;;;13.20;99.90;;;;;;4922613;29;20218;-75
2021/05/12 07:29:41;;;;;;;15.98;13.70;;;13.30;99.90;;;;;;4936791;29;20627;-75
2021/05/12 07:32:07;;;;;;;17.35;13.00;;;13.30;99.90;;;;;;4930116;29;20301;-75
2021/05/12 07:34:33;;;;;;;15.52;13.70;;;13.30;99.90;;;;;;4928176;29;20532;-73
2021/05/12 07:36:59;;;;;;;18.55;13.80;;;13.20;99.90;;;;;;4925707;29;20213;-75
2021/05/12 07:39:29;;;;;;;14.55;12.85;;;13.20;99.90;;;;;;4919317;29;20230;-75
2021/05/12 07:41:56;;;;;;;16.30;14.40;;;13.20;99.90;;;;;;4918180;29;20234;-74
2021/05/12 07:44:23;;;;;;;14.25;12.20;;;13.20;99.90;;;;;;4936881;29;20210;-74
2021/05/12 07:46:50;;;;;;;15.27;13.60;;;13.30;99.90;;;;;;4937204;29;20698;-73
2021/05/12 07:49:16;;;;;;;18.50;13.40;;;13.30;99.90;;;;;;4937802;29;20233;-74
2021/05/12 07:51:43;;;;;;;15.55;13.75;;;13.30;99.90;;;;;;4938715;29;20610;-74
2021/05/12 07:54:09;;;;;;;19.05;13.00;;;13.40;99.90;;;;;;4921062;29;20210;-75
2021/05/12 07:56:35;;;;;;;20.17;12.93;;;13.40;99.90;;;;;;4921795;29;20221;-74
2021/05/12 07:59:01;;;;;;;15.30;13.70;;;13.40;99.90;;;;;;4921504;29;20239;-75
2021/05/12 08:01:31;;;;;;;17.15;14.40;;;13.50;99.90;;;;;;4916442;29;20235;-73
2021/05/12 08:03:57;;;;;;;15.65;12.48;;;13.40;99.90;;;;;;4932373;29;20206;-73
2021/05/12 08:06:23;;;;;;;15.05;13.35;;;13.40;99.90;;;;;;4934429;29;20277;-74
2021/05/12 08:08:49;;;;;;;17.05;13.95;;;13.50;99.90;;;;;;4934557;29;20242;-73
2021/05/12 08:11:16;;;;;;;16.50;13.55;;;13.50;99.90;;;;;;4934814;29;20241;-73
2021/05/12 08:13:42;;;;;;;16.17;13.77;;;13.50;99.90;;;;;;4919053;29;20274;-73
2021/05/12 08:16:08;;;;;;;16.58;13.60;;;13.40;99.90;;;;;;4917689;29;20210;-73
2021/05/12 08:18:35;;;;;;;15.75;13.90;;;13.50;99.90;;;;;;4918625;29;20297;-74
2021/05/12 08:21:03;;;;;;;19.13;13.82;;;13.50;99.90;;;;;;4920013;29;20253;-75
2021/05/12 08:23:29;;;;;;;18.45;13.65;;;13.50;99.90;;;;;;4932651;29;20214;-74
2021/05/12 08:25:55;;;;;;;17.95;13.85;;;13.60;99.90;;;;;;4939442;29;20220;-74
2021/05/12 08:28:22;;;;;;;16.13;13.15;;;13.60;99.90;;;;;;4939297;29;20216;-75
2021/05/12 08:30:48;;;;;;;14.48;12.98;;;13.60;99.90;;;;;;4938964;29;20237;-75
2021/05/12 08:33:15;;;;;;;18.38;15.40;;;13.60;99.90;;;;;;4926722;29;20730;-75
2021/05/12 08:35:45;;;;;;;14.05;12.65;;;13.60;99.90;;;;;;4920367;29;20210;-75
2021/05/12 08:38:15;;;;;;;15.47;13.50;;;13.60;99.90;;;;;;4919587;29;20230;-75
2021/05/12 08:40:42;;;;;;;16.90;13.30;;;13.60;99.90;;;;;;4919607;29;21006;-75
2021/05/12 08:43:08;;;;;;;14.85;13.18;;;13.70;99.90;;;;;;4929013;29;20522;-75
2021/05/12 08:45:36;;;;;;;15.47;13.83;;;13.60;99.90;;;;;;4938249;29;20674;-75
2021/05/12 08:48:05;;;;;;;14.52;12.95;;;13.70;99.90;;;;;;4939298;29;21226;-75
2021/05/12 08:50:32;;;;;;;15.43;11.82;;;13.70;99.90;;;;;;4939426;29;20230;-75
2021/05/12 08:53:00;;;;;;;16.60;13.67;;;13.70;99.90;;;;;;4930948;29;20207;-76
2021/05/12 08:55:27;;;;;;;13.93;12.60;;;13.70;99.90;;;;;;4920940;29;20466;-76
2021/05/12 08:57:53;;;;;;;16.10;13.23;;;13.80;99.90;;;;;;4920840;29;20302;-74
2021/05/12 09:00:21;;;;;;;15.57;13.23;;;13.80;99.90;;;;;;4919278;29;20470;-75
2021/05/12 09:02:47;;;;;;;13.60;12.20;;;14.00;99.90;;;;;;4924208;29;20472;-75
2021/05/12 09:05:13;;;;;;;13.27;11.90;;;14.00;99.90;;;;;;4936161;29;20476;-74
2021/05/12 09:07:40;;;;;;;16.23;11.80;;;14.00;99.90;;;;;;4935423;29;20484;-75
2021/05/12 09:10:09;;;;;;;19.60;13.23;;;14.10;99.90;;;;;;4936267;29;20512;-74
2021/05/12 09:12:46;;;;;;;13.40;12.00;;;14.10;99.90;;;;;;4935608;29;20468;-74
2021/05/12 09:15:16;;;;;;;13.57;11.57;;;14.10;99.90;;;;;;4936226;29;20874;-75
2021/05/12 09:17:44;;;;;;;13.47;10.93;;;14.10;99.90;;;;;;4935709;29;20465;-75
2021/05/12 09:20:30;;;;;;;16.90;11.30;;;14.10;99.90;;;;;;4935555;29;20465;-74
2021/05/12 09:23:09;;;;;;;12.07;10.37;;;14.00;99.90;;;;;;4927235;29;20466;-74
2021/05/12 09:25:39;;;;;;;12.43;10.90;;;14.00;99.90;;;;;;4916997;29;20478;-74
2021/05/12 09:28:12;;;;;;;12.17;10.90;;;14.10;99.90;;;;;;4916392;29;20524;-73
2021/05/12 09:30:39;;;;;;;15.20;10.50;;;14.20;99.90;;;;;;4917717;29;20998;-74
2021/05/12 09:33:06;;;;;;;20.27;11.50;;;14.30;99.90;;;;;;4925539;29;20895;-73
2021/05/12 09:35:40;;;;;;;26.67;23.97;;;14.30;99.90;;;;;;4936389;29;20462;-71
2021/05/12 09:38:17;;;;;;;12.23;11.00;;;14.50;99.90;;;;;;4936482;29;20485;-73
2021/05/12 09:40:45;;;;;;;13.27;12.17;;;14.60;99.90;;;;;;4936538;29;21068;-75
2021/05/12 09:43:15;;;;;;;20.33;18.23;;;14.60;99.90;;;;;;4934443;29;20478;-75
2021/05/12 09:45:41;;;;;;;15.40;11.90;;;14.60;99.90;;;;;;4936168;29;20465;-75
2021/05/12 09:48:08;;;;;;;12.37;10.80;;;14.60;99.90;;;;;;4930279;29;20467;-74
2021/05/12 09:50:37;;;;;;;12.13;10.90;;;14.70;99.90;;;;;;4922204;29;20493;-76
2021/05/12 09:53:07;;;;;;;10.37;9.33;;;14.70;99.90;;;;;;4921004;29;20513;-75
2021/05/12 09:55:35;;;;;;;10.60;8.60;;;14.80;99.90;;;;;;4922506;29;20951;-76
2021/05/12 09:58:05;;;;;;;10.33;9.43;;;14.80;99.90;;;;;;4924871;29;20486;-76
2021/05/12 10:00:33;;;;;;;9.63;8.87;;;14.80;99.90;;;;;;4914357;29;562107;-76
2021/05/12 10:03:01;;;;;;;9.73;8.83;;;15.00;99.90;;;;;;4930076;29;20458;-76
2021/05/12 10:05:48;;;;;;;9.70;8.90;;;15.10;99.90;;;;;;4918092;29;20502;-76
2021/05/12 10:08:21;;;;;;;9.53;8.57;;;15.30;99.90;;;;;;4917714;29;20475;-76
2021/05/12 10:10:47;;;;;;;9.37;8.67;;;15.30;99.90;;;;;;4925650;29;20546;-75
2021/05/12 10:13:14;;;;;;;8.67;7.80;;;15.30;99.90;;;;;;4920597;29;20467;-75
2021/05/12 10:15:40;;;;;;;10.10;8.50;;;15.20;99.90;;;;;;4926380;29;20461;-75
2021/05/12 10:18:10;;;;;;;9.63;8.83;;;15.20;99.90;;;;;;4935366;29;20569;-75
2021/05/12 10:20:38;;;;;;;9.70;8.80;;;15.10;99.90;;;;;;4916995;29;20487;-75
2021/05/12 10:23:04;;;;;;;9.10;8.40;;;15.00;99.90;;;;;;4931972;29;20983;-75
2021/05/12 10:25:31;;;;;;;13.00;8.83;;;14.90;99.90;;;;;;4934420;29;20467;-74
2021/05/12 10:27:58;;;;;;;9.80;8.80;;;14.80;99.90;;;;;;4935695;29;20458;-74
2021/05/12 10:30:25;;;;;;;10.70;9.00;;;14.80;99.90;;;;;;4934044;29;20469;-73
2021/05/12 10:32:52;;;;;;;13.40;9.70;;;14.80;99.90;;;;;;4922228;29;20557;-75
2021/05/12 10:35:19;;;;;;;11.63;9.23;;;14.80;99.90;;;;;;4934707;29;20472;-75
2021/05/12 10:37:46;;;;;;;8.80;8.07;;;14.90;99.90;;;;;;4916091;29;20469;-74
2021/05/12 10:40:19;;;;;;;8.77;8.03;;;14.80;99.90;;;;;;4916453;29;21007;-75
2021/05/12 10:42:57;;;;;;;9.63;7.53;;;14.80;99.90;;;;;;4916365;29;20947;-75
2021/05/12 10:46:04;;;;;;;9.87;8.97;;;14.90;99.90;;;;;;4916365;29;20525;-74
2021/05/12 10:48:43;;;;;;;9.13;8.27;;;15.00;99.90;;;;;;4892009;29;20477;-75
2021/05/12 10:51:11;;;;;;;7.70;7.00;;;15.10;99.90;;;;;;4916570;29;20485;-76
2021/05/12 10:53:45;;;;;;;8.07;7.37;;;15.20;99.90;;;;;;4915591;29;20985;-74
2021/05/12 10:56:13;;;;;;;7.60;6.90;;;15.20;99.90;;;;;;4916979;29;20470;-73
2021/05/12 10:58:47;;;;;;;6.80;6.30;;;15.40;99.90;;;;;;4920582;29;20497;-76
2021/05/12 11:01:14;;;;;;;7.90;6.50;;;15.60;99.90;;;;;;4932329;29;20501;-76
2021/05/12 11:04:14;;;;;;;9.00;5.90;;;15.60;99.90;;;;;;4933846;29;20950;-76
2021/05/12 11:06:56;;;;;;;8.80;6.70;;;15.50;99.90;;;;;;4934166;29;20549;-75
2021/05/12 11:09:35;;;;;;;6.53;5.90;;;15.30;99.90;;;;;;4931917;29;20516;-77
2021/05/12 11:12:06;;;;;;;7.43;6.73;;;15.20;99.90;;;;;;4935752;29;20821;-77
2021/05/12 11:14:34;;;;;;;8.17;7.03;;;15.00;99.90;;;;;;4931879;29;20480;-76
2021/05/12 11:17:03;;;;;;;7.80;7.20;;;15.10;99.90;;;;;;4936361;29;20497;-78
2021/05/12 11:19:37;;;;;;;6.53;6.00;;;15.30;99.90;;;;;;4920910;29;20487;-77
2021/05/12 11:22:37;;;;;;;6.97;6.37;;;15.40;99.90;;;;;;4916543;29;20590;-75
2021/05/12 11:25:09;;;;;;;6.93;6.23;;;15.40;99.90;;;;;;4927139;29;20474;-74
2021/05/12 11:28:09;;;;;;;6.03;5.57;;;15.50;99.90;;;;;;4917474;29;20466;-76
2021/05/12 11:33:24;;;;;;;6.67;6.07;;;15.40;99.90;;;;;;4919561;29;20485;-76
2021/05/12 11:35:55;;;;;;;5.57;5.17;;;15.40;99.90;;;;;;4916307;29;20466;-74
2021/05/12 11:38:21;;;;;;;7.10;5.63;;;15.30;99.90;;;;;;4927303;29;20489;-73
2021/05/12 11:41:01;;;;;;;6.83;6.43;;;15.40;99.90;;;;;;4916187;29;20494;-73
2021/05/12 11:43:35;;;;;;;5.40;5.00;;;15.40;99.90;;;;;;4917395;29;20565;-73
2021/05/12 11:46:10;;;;;;;4.57;4.20;;;15.50;99.90;;;;;;4916017;29;20493;-72
2021/05/12 11:48:39;;;;;;;5.27;4.77;;;15.50;99.90;;;;;;4918989;29;20544;-73
2021/05/12 11:51:06;;;;;;;5.47;5.00;;;15.50;99.90;;;;;;4914946;29;20494;-72
2021/05/12 11:53:35;;;;;;;6.17;5.67;;;15.40;99.90;;;;;;4915920;29;20470;-73
2021/05/12 11:56:01;;;;;;;7.07;5.47;;;15.30;99.90;;;;;;4919547;29;20465;-73
2021/05/12 11:58:28;;;;;;;5.17;4.80;;;15.30;99.90;;;;;;4932938;29;20517;-73
2021/05/12 12:00:57;;;;;;;5.13;4.80;;;15.30;99.90;;;;;;4931387;29;20498;-73
2021/05/12 12:03:25;;;;;;;6.17;5.13;;;15.40;99.90;;;;;;4934777;29;20468;-72
2021/05/12 12:06:02;;;;;;;5.43;5.03;;;15.50;99.90;;;;;;4932597;29;20466;-74
2021/05/12 12:08:29;;;;;;;5.20;4.80;;;15.40;99.90;;;;;;4928300;29;20469;-73
2021/05/12 12:11:04;;;;;;;5.27;4.77;;;15.30;99.90;;;;;;4937469;29;20485;-72
2021/05/12 12:13:31;;;;;;;4.70;4.40;;;15.10;99.90;;;;;;4939798;29;20823;-72
2021/05/12 12:15:58;;;;;;;3.93;3.73;;;15.10;99.90;;;;;;4936015;29;20461;-72
2021/05/12 12:18:32;;;;;;;4.60;4.30;;;15.00;99.90;;;;;;4935833;29;20490;-73
2021/05/12 12:21:00;;;;;;;3.90;3.70;;;15.00;99.90;;;;;;4934771;29;20489;-73
2021/05/12 12:23:28;;;;;;;4.80;4.40;;;15.00;99.90;;;;;;4924753;29;20462;-74
2021/05/12 12:26:19;;;;;;;4.03;3.90;;;15.00;99.90;;;;;;4918265;29;20465;-75
2021/05/12 12:28:48;;;;;;;4.83;4.53;;;15.30;99.90;;;;;;4920610;29;21021;-74
2021/05/12 12:31:19;;;;;;;3.93;3.63;;;15.60;99.90;;;;;;4926134;29;20478;-75
2021/05/12 12:34:15;;;;;;;4.23;3.90;;;15.90;99.90;;;;;;4934142;29;21018;-72
2021/05/12 12:37:00;;;;;;;4.27;3.97;;;16.10;99.90;;;;;;4941459;29;20493;-75
2021/05/12 12:39:37;;;;;;;4.00;3.70;;;16.60;99.90;;;;;;4942376;29;20488;-75
2021/05/12 12:42:04;;;;;;;4.50;4.17;;;16.70;99.90;;;;;;4947435;29;20553;-73
2021/05/12 12:44:34;;;;;;;4.47;4.20;;;16.80;99.90;;;;;;4944571;29;20481;-74
2021/05/12 12:47:00;;;;;;;4.33;4.13;;;16.80;99.90;;;;;;4938455;29;20461;-75
2021/05/12 12:49:35;;;;;;;4.50;4.30;;;16.90;99.90;;;;;;4941854;29;20633;-77
2021/05/12 12:52:11;;;;;;;4.50;4.20;;;16.90;99.90;;;;;;4939975;29;20545;-77
2021/05/12 12:54:44;;;;;;;4.83;4.53;;;16.80;99.90;;;;;;4927043;29;20465;-74
2021/05/12 12:57:10;;;;;;;4.50;4.30;;;16.60;99.90;;;;;;4934575;29;20505;-74
2021/05/12 13:00:09;;;;;;;6.30;5.63;;;16.40;99.90;;;;;;4935759;29;20504;-74
2021/05/12 13:02:35;;;;;;;8.47;5.50;;;16.50;99.90;;;;;;4937986;29;20473;-74
2021/05/12 13:05:19;;;;;;;6.20;5.60;;;16.70;99.90;;;;;;4937748;29;20472;-75
2021/05/12 13:07:47;;;;;;;6.80;6.27;;;16.70;99.90;;;;;;4937803;29;20457;-75
2021/05/12 13:10:33;;;;;;;4.80;4.50;;;16.70;99.90;;;;;;4939691;29;20458;-74
2021/05/12 13:12:59;;;;;;;5.50;5.20;;;16.50;99.90;;;;;;4934667;29;20496;-75
2021/05/12 13:15:27;;;;;;;8.90;6.60;;;16.30;99.90;;;;;;4926891;29;20564;-76
2021/05/12 13:17:58;;;;;;;7.07;6.57;;;16.20;99.90;;;;;;4938692;29;20462;-76
2021/05/12 13:20:25;;;;;;;7.90;6.43;;;16.10;99.90;;;;;;4918784;29;20479;-76
2021/05/12 13:23:08;;;;;;;5.80;5.30;;;16.10;99.90;;;;;;4919610;29;20823;-77
2021/05/12 13:25:36;;;;;;;6.53;5.93;;;16.10;99.90;;;;;;4935246;29;20462;-77
2021/05/12 13:28:07;;;;;;;8.63;5.43;;;16.10;99.90;;;;;;4941731;29;20871;-77
2021/05/12 13:30:33;;;;;;;6.60;6.00;;;16.00;99.90;;;;;;4924794;29;20466;-77
2021/05/12 13:32:59;;;;;;;7.17;6.43;;;16.00;99.90;;;;;;4918788;29;20470;-77
2021/05/12 13:35:27;;;;;;;8.33;6.33;;;16.00;99.90;;;;;;4920129;29;20467;-76
2021/05/12 13:37:53;;;;;;;8.53;6.40;;;15.90;99.90;;;;;;4920037;29;20479;-78
2021/05/12 13:40:21;;;;;;;6.27;5.73;;;15.90;99.90;;;;;;4920175;29;20896;-78
2021/05/12 13:42:47;;;;;;;8.53;6.70;;;15.80;99.90;;;;;;4919621;29;21046;-77
2021/05/12 13:45:15;;;;;;;9.17;7.37;;;15.70;99.90;;;;;;4919817;29;20462;-78
2021/05/12 13:47:42;;;;;;;6.93;6.33;;;15.70;99.90;;;;;;4920164;29;20467;-77
2021/05/12 13:50:13;;;;;;;7.43;6.83;;;15.70;99.90;;;;;;4919395;29;20944;-77
2021/05/12 13:52:47;;;;;;;8.03;7.30;;;15.60;99.90;;;;;;4919779;29;20502;-78
2021/05/12 13:55:18;;;;;;;7.23;6.63;;;15.60;99.90;;;;;;4919326;29;20988;-77
2021/05/12 13:58:00;;;;;;;7.50;6.80;;;15.60;99.90;;;;;;4918041;29;20502;-77
2021/05/12 14:00:43;;;;;;;6.00;5.40;;;15.70;99.90;;;;;;4918499;29;20493;-77
2021/05/12 14:03:09;;;;;;;6.37;5.77;;;15.90;99.90;;;;;;4920674;29;20476;-78
2021/05/12 14:05:37;;;;;;;6.27;5.67;;;16.10;99.90;;;;;;4921026;29;21010;-77
2021/05/12 14:08:04;;;;;;;5.90;5.00;;;16.10;99.90;;;;;;4919861;29;20263;-77
2021/05/12 14:10:34;;;;;;;6.07;5.47;;;16.20;99.90;;;;;;4919365;29;20487;-77
2021/05/12 14:13:10;;;;;;;7.83;5.33;;;16.20;99.90;;;;;;4917509;29;20470;-77
2021/05/12 14:15:59;;;;;;;5.30;5.00;;;16.30;99.90;;;;;;4918981;29;20553;-78
2021/05/12 14:18:26;;;;;;;5.53;5.07;;;16.30;99.90;;;;;;4917167;29;20487;-76
2021/05/12 14:20:52;;;;;;;5.27;4.77;;;16.30;99.90;;;;;;4916964;29;20493;-76
2021/05/12 14:23:18;;;;;;;6.00;5.07;;;16.20;99.90;;;;;;4917705;29;20522;-76
2021/05/12 14:25:45;;;;;;;4.30;3.90;;;16.20;99.90;;;;;;4937600;29;20538;-76
2021/05/12 14:28:13;;;;;;;4.67;4.23;;;16.20;99.90;;;;;;4936684;29;20474;-76
2021/05/12 14:30:41;;;;;;;3.93;3.70;;;16.10;99.90;;;;;;4937300;29;20496;-75
2021/05/12 14:33:08;;;;;;;5.00;4.70;;;16.10;99.90;;;;;;4936141;29;20465;-75
2021/05/12 14:35:35;;;;;;;4.50;4.10;;;16.00;99.90;;;;;;4937138;29;20474;-77
2021/05/12 14:38:02;;;;;;;4.47;4.17;;;15.90;99.90;;;;;;4936791;29;20469;-76
2021/05/12 14:40:29;;;;;;;5.10;4.70;;;15.90;99.90;;;;;;4938083;29;20496;-76
2021/05/12 14:42:57;;;;;;;8.47;4.77;;;15.80;99.90;;;;;;4942466;29;20474;-78
2021/05/12 14:45:24;;;;;;;4.60;4.20;;;15.70;99.90;;;;;;4951660;29;20450;-77
2021/05/12 14:47:55;;;;;;;4.47;4.07;;;15.60;99.90;;;;;;4948812;29;20524;-78
2021/05/12 14:50:26;;;;;;;7.13;5.27;;;15.50;99.90;;;;;;4936536;29;20485;-78
2021/05/12 14:52:55;;;;;;;4.20;3.90;;;15.40;99.90;;;;;;4928788;29;20466;-77
2021/05/12 14:55:27;;;;;;;6.13;5.67;;;15.40;99.90;;;;;;4930344;29;20482;-77
2021/05/12 14:58:09;;;;;;;4.70;4.40;;;15.40;99.90;;;;;;4940934;29;20500;-76
2021/05/12 15:00:52;;;;;;;3.83;3.60;;;15.40;99.90;;;;;;4924314;29;20486;-74
2021/05/12 15:03:22;;;;;;;4.97;4.50;;;15.30;99.90;;;;;;4918849;29;20836;-76
2021/05/12 15:08:29;;;;;;;5.10;4.47;;;15.40;99.90;;;;;;4935226;29;20582;-76
2021/05/12 15:10:55;;;;;;;4.60;4.40;;;15.40;99.90;;;;;;4937290;29;20533;-76
2021/05/12 15:13:21;;;;;;;6.23;3.60;;;15.40;99.90;;;;;;4922714;29;20459;-76
2021/05/12 15:15:48;;;;;;;8.13;4.63;;;15.50;99.90;;;;;;4917116;29;20466;-76
2021/05/12 15:18:15;;;;;;;4.27;3.97;;;15.60;99.90;;;;;;4927481;29;20458;-74
2021/05/12 15:20:41;;;;;;;4.70;3.73;;;15.60;99.90;;;;;;4935407;29;20494;-76
2021/05/12 15:23:07;;;;;;;5.57;4.43;;;15.70;99.90;;;;;;4925115;29;20467;-75
2021/05/12 15:25:34;;;;;;;6.20;4.80;;;15.60;99.90;;;;;;4916853;29;20467;-74
2021/05/12 15:28:00;;;;;;;5.60;4.40;;;15.60;99.90;;;;;;4924997;29;20784;-75
2021/05/12 15:30:27;;;;;;;4.77;4.43;;;15.50;99.90;;;;;;4931373;29;20473;-75
2021/05/12 15:32:54;;;;;;;5.93;5.50;;;15.40;99.90;;;;;;4935574;29;20512;-75
2021/05/12 15:35:20;;;;;;;5.30;4.90;;;15.30;99.90;;;;;;4928690;29;20470;-75
2021/05/12 15:37:46;;;;;;;4.97;4.50;;;15.20;99.90;;;;;;4915973;29;20544;-76
2021/05/12 15:40:14;;;;;;;5.57;5.20;;;15.20;99.90;;;;;;4920698;29;21005;-74
2021/05/12 15:42:40;;;;;;;4.87;4.67;;;15.20;99.90;;;;;;4935739;29;20464;-74
2021/05/12 15:45:08;;;;;;;4.70;4.17;;;15.20;99.90;;;;;;4932307;29;20522;-74
2021/05/12 15:47:34;;;;;;;5.40;5.10;;;15.10;99.90;;;;;;4916261;29;20481;-74
2021/05/12 15:50:01;;;;;;;5.03;4.73;;;15.10;99.90;;;;;;4917532;29;20470;-74
2021/05/12 15:52:27;;;;;;;5.50;4.90;;;15.00;99.90;;;;;;4934572;29;20544;-74
2021/05/12 15:54:54;;;;;;;5.40;5.00;;;15.10;99.90;;;;;;4934332;29;20465;-74
2021/05/12 15:57:22;;;;;;;5.33;4.87;;;15.10;99.90;;;;;;4916298;29;20466;-74
2021/05/12 15:59:48;;;;;;;5.33;5.00;;;15.10;99.90;;;;;;4927093;29;20497;-74
2021/05/12 16:02:16;;;;;;;4.73;4.43;;;15.10;99.90;;;;;;4929822;29;21006;-74
2021/05/12 16:04:42;;;;;;;5.87;5.23;;;15.10;99.90;;;;;;4922582;29;20513;-75
2021/05/12 16:07:09;;;;;;;5.60;4.80;;;15.20;99.90;;;;;;4933926;29;20461;-76
2021/05/12 16:09:37;;;;;;;5.73;5.23;;;15.10;99.90;;;;;;4929695;29;20497;-76
2021/05/12 16:12:05;;;;;;;10.10;9.10;;;15.20;99.90;;;;;;4934162;29;20541;-76
2021/05/12 16:14:31;;;;;;;5.90;5.53;;;15.10;99.90;;;;;;4929203;29;20470;-77
2021/05/12 16:17:00;;;;;;;6.00;5.37;;;15.10;99.90;;;;;;4916120;29;20817;-75
2021/05/12 16:19:29;;;;;;;5.67;4.80;;;15.00;99.90;;;;;;4921015;29;20494;-75
2021/05/12 16:21:56;;;;;;;8.60;6.90;;;14.90;99.90;;;;;;4920068;29;20517;-76
2021/05/12 16:24:23;;;;;;;8.30;7.40;;;14.80;99.90;;;;;;4924253;29;20473;-77
2021/05/12 16:26:49;;;;;;;6.90;6.10;;;14.80;99.90;;;;;;4934665;29;20228;-75
2021/05/12 16:29:16;;;;;;;6.18;5.10;;;14.70;99.90;;;;;;4934511;29;20543;-76
2021/05/12 16:31:42;;;;;;;5.60;5.20;;;14.70;99.90;;;;;;4926980;29;20725;-76
2021/05/12 16:34:09;;;;;;;4.73;4.50;;;14.60;99.90;;;;;;4914761;29;20832;-76
2021/05/12 16:36:35;;;;;;;5.55;5.10;;;14.60;99.90;;;;;;4921341;29;20607;-74
2021/05/12 16:39:01;;;;;;;4.95;4.50;;;14.60;99.90;;;;;;4938392;29;20288;-76
2021/05/12 16:41:28;;;;;;;4.97;4.43;;;14.60;99.90;;;;;;4934553;29;20622;-76
2021/05/12 16:43:54;;;;;;;5.60;5.10;;;14.50;99.90;;;;;;4919614;29;20473;-76
2021/05/12 16:46:21;;;;;;;5.97;5.00;;;14.50;99.90;;;;;;4919668;29;20481;-76
2021/05/12 16:48:49;;;;;;;7.57;5.82;;;14.50;99.90;;;;;;4920180;29;20476;-76
2021/05/12 16:51:15;;;;;;;5.85;5.40;;;14.50;99.90;;;;;;4920477;29;20261;-75
2021/05/12 16:53:42;;;;;;;5.87;5.40;;;14.40;99.90;;;;;;4921768;29;20278;-76